Alapaha, Georgia
Current Conditions -  °F | °C
As of 10:15 AM on Monday 24 Nov 2014 (Local Time) from KTMA Reporting Station
Moderate Rain Moderate Rain  
Wind Chill: 69°   Ceiling: 4700
Heat Index: 69°   Visibility: 4mi
Dew Point: 68°   Wind: 5mph
Humidity: 97%   Direction: 210°SSW
Pressure: 29.89"   Gusts: NA
Location:  31.39°N, 83.22°W
Report Text: KTMA 241515Z AUTO 21004KT 4SM RA SCT010 SCT017 OVC047 20/20 A2989 RMK AO2 LTG DSNT W T02030198
Loading
Personal Weather Stations






























Interactive Weather Map New forecast layout! Learn more

10-Day Weather Forecast

Advertisements
Track Severe Weather on mobile